sensor_id;sensor_type;location;lat;lon;timestamp;P1;durP1;ratioP1;P2;durP2;ratioP2
37907;SDS011;23740;51.550;6.846;2022-12-07T00:01:32;5.13;;;3.47;;
37907;SDS011;23740;51.550;6.846;2022-12-07T00:03:59;5.35;;;3.58;;
37907;SDS011;23740;51.550;6.846;2022-12-07T00:06:30;5.03;;;3.45;;
37907;SDS011;23740;51.550;6.846;2022-12-07T00:08:56;7.55;;;4.10;;
37907;SDS011;23740;51.550;6.846;2022-12-07T00:11:22;4.97;;;3.63;;
37907;SDS011;23740;51.550;6.846;2022-12-07T00:13:55;4.97;;;3.72;;
37907;SDS011;23740;51.550;6.846;2022-12-07T00:16:23;6.07;;;3.70;;
37907;SDS011;23740;51.550;6.846;2022-12-07T00:18:50;5.93;;;3.60;;
37907;SDS011;23740;51.550;6.846;2022-12-07T00:21:16;6.63;;;4.50;;
37907;SDS011;23740;51.550;6.846;2022-12-07T00:23:44;4.65;;;3.40;;
37907;SDS011;23740;51.550;6.846;2022-12-07T00:26:12;4.72;;;3.38;;
37907;SDS011;23740;51.550;6.846;2022-12-07T00:29:20;5.05;;;3.25;;
37907;SDS011;23740;51.550;6.846;2022-12-07T00:31:46;5.97;;;3.78;;
37907;SDS011;23740;51.550;6.846;2022-12-07T00:34:13;6.88;;;5.05;;
37907;SDS011;23740;51.550;6.846;2022-12-07T00:36:39;4.60;;;3.67;;
37907;SDS011;23740;51.550;6.846;2022-12-07T00:39:05;4.32;;;3.45;;
37907;SDS011;23740;51.550;6.846;2022-12-07T00:41:30;6.57;;;3.08;;
37907;SDS011;23740;51.550;6.846;2022-12-07T00:43:56;5.68;;;3.15;;
37907;SDS011;23740;51.550;6.846;2022-12-07T00:46:22;5.53;;;3.13;;
37907;SDS011;23740;51.550;6.846;2022-12-07T00:48:47;5.22;;;3.30;;
37907;SDS011;23740;51.550;6.846;2022-12-07T00:51:14;5.32;;;3.28;;
37907;SDS011;23740;51.550;6.846;2022-12-07T00:53:41;4.22;;;2.85;;
37907;SDS011;23740;51.550;6.846;2022-12-07T00:59:02;5.25;;;3.25;;
37907;SDS011;23740;51.550;6.846;2022-12-07T01:01:29;5.47;;;3.10;;
37907;SDS011;23740;51.550;6.846;2022-12-07T01:03:56;6.20;;;3.20;;
37907;SDS011;23740;51.550;6.846;2022-12-07T01:06:22;4.63;;;3.10;;
37907;SDS011;23740;51.550;6.846;2022-12-07T01:08:48;5.30;;;3.25;;
37907;SDS011;23740;51.550;6.846;2022-12-07T01:11:15;5.53;;;3.47;;
37907;SDS011;23740;51.550;6.846;2022-12-07T01:13:43;4.28;;;3.08;;
37907;SDS011;23740;51.550;6.846;2022-12-07T01:16:09;4.60;;;3.10;;
37907;SDS011;23740;51.550;6.846;2022-12-07T01:18:36;4.93;;;3.42;;
37907;SDS011;23740;51.550;6.846;2022-12-07T01:21:02;4.10;;;2.70;;
37907;SDS011;23740;51.550;6.846;2022-12-07T01:23:30;4.50;;;2.97;;
37907;SDS011;23740;51.550;6.846;2022-12-07T01:26:00;4.53;;;2.92;;
37907;SDS011;23740;51.550;6.846;2022-12-07T01:28:26;5.15;;;2.90;;
37907;SDS011;23740;51.550;6.846;2022-12-07T01:30:59;4.43;;;2.90;;
37907;SDS011;23740;51.550;6.846;2022-12-07T01:33:30;5.10;;;3.08;;
37907;SDS011;23740;51.550;6.846;2022-12-07T01:36:03;6.35;;;3.30;;
37907;SDS011;23740;51.550;6.846;2022-12-07T01:38:33;7.07;;;3.20;;
37907;SDS011;23740;51.550;6.846;2022-12-07T01:40:59;3.70;;;2.60;;
37907;SDS011;23740;51.550;6.846;2022-12-07T01:43:26;3.83;;;2.80;;
37907;SDS011;23740;51.550;6.846;2022-12-07T01:45:53;3.47;;;2.38;;
37907;SDS011;23740;51.550;6.846;2022-12-07T01:48:20;5.25;;;2.92;;
37907;SDS011;23740;51.550;6.846;2022-12-07T01:50:48;4.38;;;2.97;;
37907;SDS011;23740;51.550;6.846;2022-12-07T01:53:15;4.35;;;2.92;;
37907;SDS011;23740;51.550;6.846;2022-12-07T01:55:42;3.05;;;2.67;;
37907;SDS011;23740;51.550;6.846;2022-12-07T01:58:09;5.40;;;2.80;;
37907;SDS011;23740;51.550;6.846;2022-12-07T02:00:36;3.83;;;3.17;;
37907;SDS011;23740;51.550;6.846;2022-12-07T02:05:35;4.22;;;2.78;;
37907;SDS011;23740;51.550;6.846;2022-12-07T02:08:02;3.78;;;2.70;;
37907;SDS011;23740;51.550;6.846;2022-12-07T02:10:28;5.25;;;2.97;;
37907;SDS011;23740;51.550;6.846;2022-12-07T02:12:59;8.20;;;2.97;;
37907;SDS011;23740;51.550;6.846;2022-12-07T02:15:27;4.68;;;2.70;;
37907;SDS011;23740;51.550;6.846;2022-12-07T02:21:20;4.75;;;2.85;;
37907;SDS011;23740;51.550;6.846;2022-12-07T02:23:38;5.13;;;2.83;;
37907;SDS011;23740;51.550;6.846;2022-12-07T02:26:35;3.22;;;2.40;;
37907;SDS011;23740;51.550;6.846;2022-12-07T02:31:37;4.60;;;2.63;;
37907;SDS011;23740;51.550;6.846;2022-12-07T02:34:26;4.13;;;2.83;;
37907;SDS011;23740;51.550;6.846;2022-12-07T02:36:55;5.20;;;2.90;;
37907;SDS011;23740;51.550;6.846;2022-12-07T02:39:31;4.13;;;2.53;;
37907;SDS011;23740;51.550;6.846;2022-12-07T02:42:07;4.00;;;2.45;;
37907;SDS011;23740;51.550;6.846;2022-12-07T02:44:37;4.68;;;2.40;;
37907;SDS011;23740;51.550;6.846;2022-12-07T02:47:05;2.35;;;2.10;;
37907;SDS011;23740;51.550;6.846;2022-12-07T02:49:32;4.00;;;2.72;;
37907;SDS011;23740;51.550;6.846;2022-12-07T02:51:58;4.25;;;3.00;;
37907;SDS011;23740;51.550;6.846;2022-12-07T02:54:23;5.00;;;3.22;;
37907;SDS011;23740;51.550;6.846;2022-12-07T02:56:50;4.07;;;2.58;;
37907;SDS011;23740;51.550;6.846;2022-12-07T03:04:51;3.75;;;2.70;;
37907;SDS011;23740;51.550;6.846;2022-12-07T03:07:24;4.18;;;2.90;;
37907;SDS011;23740;51.550;6.846;2022-12-07T03:15:33;3.28;;;2.35;;
37907;SDS011;23740;51.550;6.846;2022-12-07T03:18:01;4.22;;;2.72;;
37907;SDS011;23740;51.550;6.846;2022-12-07T03:20:28;3.53;;;2.53;;
37907;SDS011;23740;51.550;6.846;2022-12-07T03:22:54;3.80;;;2.47;;
37907;SDS011;23740;51.550;6.846;2022-12-07T03:25:20;3.40;;;2.50;;
37907;SDS011;23740;51.550;6.846;2022-12-07T03:27:48;3.83;;;2.22;;
37907;SDS011;23740;51.550;6.846;2022-12-07T03:30:18;3.05;;;2.38;;
37907;SDS011;23740;51.550;6.846;2022-12-07T03:40:29;3.25;;;2.33;;
37907;SDS011;23740;51.550;6.846;2022-12-07T03:43:25;4.55;;;2.95;;
37907;SDS011;23740;51.550;6.846;2022-12-07T03:49:21;5.88;;;2.47;;
37907;SDS011;23740;51.550;6.846;2022-12-07T03:54:19;3.35;;;2.20;;
37907;SDS011;23740;51.550;6.846;2022-12-07T03:56:47;3.78;;;2.60;;
37907;SDS011;23740;51.550;6.846;2022-12-07T03:59:13;3.70;;;2.47;;
37907;SDS011;23740;51.550;6.846;2022-12-07T04:01:41;2.97;;;2.58;;
37907;SDS011;23740;51.550;6.846;2022-12-07T04:04:07;3.72;;;2.70;;
37907;SDS011;23740;51.550;6.846;2022-12-07T04:06:33;3.40;;;2.35;;
37907;SDS011;23740;51.550;6.846;2022-12-07T04:08:58;3.45;;;2.20;;
37907;SDS011;23740;51.550;6.846;2022-12-07T04:11:23;4.07;;;2.72;;
37907;SDS011;23740;51.550;6.846;2022-12-07T04:13:49;2.97;;;2.35;;
37907;SDS011;23740;51.550;6.846;2022-12-07T04:16:33;3.28;;;2.35;;
37907;SDS011;23740;51.550;6.846;2022-12-07T04:18:58;5.63;;;2.40;;
37907;SDS011;23740;51.550;6.846;2022-12-07T04:21:23;4.18;;;2.28;;
37907;SDS011;23740;51.550;6.846;2022-12-07T04:23:49;3.63;;;2.20;;
37907;SDS011;23740;51.550;6.846;2022-12-07T04:26:14;2.80;;;2.10;;
37907;SDS011;23740;51.550;6.846;2022-12-07T04:28:39;3.30;;;2.50;;
37907;SDS011;23740;51.550;6.846;2022-12-07T04:31:05;2.85;;;2.15;;
37907;SDS011;23740;51.550;6.846;2022-12-07T04:33:30;3.25;;;2.25;;
37907;SDS011;23740;51.550;6.846;2022-12-07T04:35:55;2.40;;;2.10;;
37907;SDS011;23740;51.550;6.846;2022-12-07T04:38:21;3.08;;;2.20;;
37907;SDS011;23740;51.550;6.846;2022-12-07T04:40:46;4.15;;;2.30;;
37907;SDS011;23740;51.550;6.846;2022-12-07T04:43:12;3.28;;;2.30;;
37907;SDS011;23740;51.550;6.846;2022-12-07T04:45:37;2.97;;;2.00;;
37907;SDS011;23740;51.550;6.846;2022-12-07T04:48:02;3.38;;;2.33;;
37907;SDS011;23740;51.550;6.846;2022-12-07T04:50:28;3.05;;;2.17;;
37907;SDS011;23740;51.550;6.846;2022-12-07T04:52:53;4.50;;;2.22;;
37907;SDS011;23740;51.550;6.846;2022-12-07T04:55:18;4.20;;;2.33;;
37907;SDS011;23740;51.550;6.846;2022-12-07T04:57:44;2.88;;;2.22;;
37907;SDS011;23740;51.550;6.846;2022-12-07T05:00:09;3.15;;;2.13;;
37907;SDS011;23740;51.550;6.846;2022-12-07T05:02:35;2.70;;;1.95;;
37907;SDS011;23740;51.550;6.846;2022-12-07T05:05:00;3.40;;;2.10;;
37907;SDS011;23740;51.550;6.846;2022-12-07T05:07:26;2.70;;;2.05;;
37907;SDS011;23740;51.550;6.846;2022-12-07T05:09:51;4.30;;;2.53;;
37907;SDS011;23740;51.550;6.846;2022-12-07T05:12:16;3.13;;;2.30;;
37907;SDS011;23740;51.550;6.846;2022-12-07T05:14:42;3.72;;;2.28;;
37907;SDS011;23740;51.550;6.846;2022-12-07T05:17:07;4.35;;;2.42;;
37907;SDS011;23740;51.550;6.846;2022-12-07T05:19:33;2.85;;;2.05;;
37907;SDS011;23740;51.550;6.846;2022-12-07T05:21:58;2.55;;;2.10;;
37907;SDS011;23740;51.550;6.846;2022-12-07T05:24:23;3.30;;;2.40;;
37907;SDS011;23740;51.550;6.846;2022-12-07T05:26:49;3.15;;;2.05;;
37907;SDS011;23740;51.550;6.846;2022-12-07T05:29:15;1.90;;;1.73;;
37907;SDS011;23740;51.550;6.846;2022-12-07T05:31:41;2.55;;;1.90;;
37907;SDS011;23740;51.550;6.846;2022-12-07T05:34:07;2.78;;;2.22;;
37907;SDS011;23740;51.550;6.846;2022-12-07T05:36:33;2.40;;;2.03;;
37907;SDS011;23740;51.550;6.846;2022-12-07T05:38:58;3.50;;;2.20;;
37907;SDS011;23740;51.550;6.846;2022-12-07T05:41:24;4.28;;;2.00;;
37907;SDS011;23740;51.550;6.846;2022-12-07T05:44:08;4.30;;;2.33;;
37907;SDS011;23740;51.550;6.846;2022-12-07T05:46:33;2.67;;;2.17;;
37907;SDS011;23740;51.550;6.846;2022-12-07T05:48:59;3.17;;;2.33;;
37907;SDS011;23740;51.550;6.846;2022-12-07T05:51:25;3.38;;;2.00;;
37907;SDS011;23740;51.550;6.846;2022-12-07T05:53:50;2.83;;;2.08;;
37907;SDS011;23740;51.550;6.846;2022-12-07T05:56:15;3.20;;;2.15;;
37907;SDS011;23740;51.550;6.846;2022-12-07T05:58:41;3.05;;;2.10;;
37907;SDS011;23740;51.550;6.846;2022-12-07T06:01:25;2.85;;;2.17;;
37907;SDS011;23740;51.550;6.846;2022-12-07T06:03:50;3.53;;;2.20;;
37907;SDS011;23740;51.550;6.846;2022-12-07T06:06:16;2.80;;;2.08;;
37907;SDS011;23740;51.550;6.846;2022-12-07T06:08:41;2.40;;;1.98;;
37907;SDS011;23740;51.550;6.846;2022-12-07T06:11:06;2.92;;;2.08;;
37907;SDS011;23740;51.550;6.846;2022-12-07T06:13:52;3.20;;;2.22;;
37907;SDS011;23740;51.550;6.846;2022-12-07T06:16:17;3.10;;;2.10;;
37907;SDS011;23740;51.550;6.846;2022-12-07T06:18:43;2.50;;;1.98;;
37907;SDS011;23740;51.550;6.846;2022-12-07T06:21:08;3.30;;;1.80;;
37907;SDS011;23740;51.550;6.846;2022-12-07T06:23:33;3.58;;;2.38;;
37907;SDS011;23740;51.550;6.846;2022-12-07T06:25:59;3.00;;;2.20;;
37907;SDS011;23740;51.550;6.846;2022-12-07T06:28:24;2.78;;;1.90;;
37907;SDS011;23740;51.550;6.846;2022-12-07T06:30:59;3.13;;;2.10;;
37907;SDS011;23740;51.550;6.846;2022-12-07T06:33:25;2.88;;;2.13;;
37907;SDS011;23740;51.550;6.846;2022-12-07T06:35:51;2.72;;;2.20;;
37907;SDS011;23740;51.550;6.846;2022-12-07T06:38:16;4.45;;;2.40;;
37907;SDS011;23740;51.550;6.846;2022-12-07T06:40:42;3.40;;;2.25;;
37907;SDS011;23740;51.550;6.846;2022-12-07T06:43:07;3.92;;;2.40;;
37907;SDS011;23740;51.550;6.846;2022-12-07T06:45:33;2.85;;;1.88;;
37907;SDS011;23740;51.550;6.846;2022-12-07T06:47:58;3.63;;;2.25;;
37907;SDS011;23740;51.550;6.846;2022-12-07T06:50:23;4.15;;;2.20;;
37907;SDS011;23740;51.550;6.846;2022-12-07T06:52:50;2.92;;;1.90;;
37907;SDS011;23740;51.550;6.846;2022-12-07T06:55:16;2.65;;;2.10;;
37907;SDS011;23740;51.550;6.846;2022-12-07T06:57:41;2.00;;;1.52;;
37907;SDS011;23740;51.550;6.846;2022-12-07T07:00:06;2.97;;;2.05;;
37907;SDS011;23740;51.550;6.846;2022-12-07T07:02:32;4.88;;;2.20;;
37907;SDS011;23740;51.550;6.846;2022-12-07T07:04:58;2.50;;;1.95;;
37907;SDS011;23740;51.550;6.846;2022-12-07T07:07:23;3.58;;;1.90;;
37907;SDS011;23740;51.550;6.846;2022-12-07T07:09:48;3.72;;;1.77;;
37907;SDS011;23740;51.550;6.846;2022-12-07T07:12:14;2.53;;;1.85;;
37907;SDS011;23740;51.550;6.846;2022-12-07T07:14:39;3.72;;;2.13;;
37907;SDS011;23740;51.550;6.846;2022-12-07T07:17:04;4.35;;;2.00;;
37907;SDS011;23740;51.550;6.846;2022-12-07T07:19:30;2.20;;;2.00;;
37907;SDS011;23740;51.550;6.846;2022-12-07T07:21:55;5.43;;;2.10;;
37907;SDS011;23740;51.550;6.846;2022-12-07T07:24:21;2.58;;;1.90;;
37907;SDS011;23740;51.550;6.846;2022-12-07T07:26:46;5.97;;;2.20;;
37907;SDS011;23740;51.550;6.846;2022-12-07T07:29:11;2.92;;;2.10;;
37907;SDS011;23740;51.550;6.846;2022-12-07T07:31:37;3.63;;;2.17;;
37907;SDS011;23740;51.550;6.846;2022-12-07T07:34:02;2.97;;;1.77;;
37907;SDS011;23740;51.550;6.846;2022-12-07T07:36:28;3.05;;;2.20;;
37907;SDS011;23740;51.550;6.846;2022-12-07T07:38:53;3.45;;;2.00;;
37907;SDS011;23740;51.550;6.846;2022-12-07T07:41:18;3.47;;;2.40;;
37907;SDS011;23740;51.550;6.846;2022-12-07T07:43:44;3.38;;;2.10;;
37907;SDS011;23740;51.550;6.846;2022-12-07T07:46:09;4.65;;;2.13;;
37907;SDS011;23740;51.550;6.846;2022-12-07T07:48:35;5.05;;;2.38;;
37907;SDS011;23740;51.550;6.846;2022-12-07T07:51:00;2.85;;;1.67;;
37907;SDS011;23740;51.550;6.846;2022-12-07T07:53:30;1.60;;;1.50;;
37907;SDS011;23740;51.550;6.846;2022-12-07T07:55:55;2.88;;;1.70;;
37907;SDS011;23740;51.550;6.846;2022-12-07T07:58:21;3.28;;;2.03;;
37907;SDS011;23740;51.550;6.846;2022-12-07T08:00:46;2.53;;;1.80;;
37907;SDS011;23740;51.550;6.846;2022-12-07T08:03:12;3.78;;;2.00;;
37907;SDS011;23740;51.550;6.846;2022-12-07T08:05:37;3.35;;;2.10;;
37907;SDS011;23740;51.550;6.846;2022-12-07T08:08:03;3.70;;;2.15;;
37907;SDS011;23740;51.550;6.846;2022-12-07T08:10:28;2.75;;;1.70;;
37907;SDS011;23740;51.550;6.846;2022-12-07T08:12:54;2.78;;;1.70;;
37907;SDS011;23740;51.550;6.846;2022-12-07T08:15:39;2.65;;;1.77;;
37907;SDS011;23740;51.550;6.846;2022-12-07T08:18:06;2.75;;;1.80;;
37907;SDS011;23740;51.550;6.846;2022-12-07T08:20:32;4.78;;;2.08;;
37907;SDS011;23740;51.550;6.846;2022-12-07T08:22:57;1.63;;;1.50;;
37907;SDS011;23740;51.550;6.846;2022-12-07T08:25:23;3.83;;;1.98;;
37907;SDS011;23740;51.550;6.846;2022-12-07T08:27:48;2.08;;;1.88;;
37907;SDS011;23740;51.550;6.846;2022-12-07T08:30:14;3.70;;;1.90;;
37907;SDS011;23740;51.550;6.846;2022-12-07T08:32:40;1.95;;;1.42;;
37907;SDS011;23740;51.550;6.846;2022-12-07T08:35:05;2.45;;;1.95;;
37907;SDS011;23740;51.550;6.846;2022-12-07T08:37:31;4.28;;;1.77;;
37907;SDS011;23740;51.550;6.846;2022-12-07T08:39:57;3.97;;;1.77;;
37907;SDS011;23740;51.550;6.846;2022-12-07T08:42:23;2.78;;;2.08;;
37907;SDS011;23740;51.550;6.846;2022-12-07T08:44:52;2.70;;;1.77;;
37907;SDS011;23740;51.550;6.846;2022-12-07T08:47:18;3.90;;;1.80;;
37907;SDS011;23740;51.550;6.846;2022-12-07T08:49:44;2.67;;;1.88;;
37907;SDS011;23740;51.550;6.846;2022-12-07T08:52:11;2.77;;;1.97;;
37907;SDS011;23740;51.550;6.846;2022-12-07T08:54:37;2.25;;;1.60;;
37907;SDS011;23740;51.550;6.846;2022-12-07T08:57:04;2.30;;;1.48;;
37907;SDS011;23740;51.550;6.846;2022-12-07T08:59:31;2.03;;;1.40;;
37907;SDS011;23740;51.550;6.846;2022-12-07T09:01:58;2.47;;;1.55;;
37907;SDS011;23740;51.550;6.846;2022-12-07T09:04:23;1.83;;;1.38;;
37907;SDS011;23740;51.550;6.846;2022-12-07T09:06:48;3.85;;;1.60;;
37907;SDS011;23740;51.550;6.846;2022-12-07T09:09:14;4.22;;;2.25;;
37907;SDS011;23740;51.550;6.846;2022-12-07T09:11:40;2.45;;;1.60;;
37907;SDS011;23740;51.550;6.846;2022-12-07T09:14:05;2.63;;;1.80;;
37907;SDS011;23740;51.550;6.846;2022-12-07T09:16:31;2.42;;;1.65;;
37907;SDS011;23740;51.550;6.846;2022-12-07T09:18:56;2.40;;;1.42;;
37907;SDS011;23740;51.550;6.846;2022-12-07T09:21:21;1.90;;;1.58;;
37907;SDS011;23740;51.550;6.846;2022-12-07T09:23:47;2.67;;;1.60;;
37907;SDS011;23740;51.550;6.846;2022-12-07T09:26:12;1.85;;;1.58;;
37907;SDS011;23740;51.550;6.846;2022-12-07T09:28:38;2.75;;;1.83;;
37907;SDS011;23740;51.550;6.846;2022-12-07T09:31:03;1.60;;;1.50;;
37907;SDS011;23740;51.550;6.846;2022-12-07T09:33:30;3.10;;;1.85;;
37907;SDS011;23740;51.550;6.846;2022-12-07T09:35:56;2.85;;;1.75;;
37907;SDS011;23740;51.550;6.846;2022-12-07T09:38:21;2.90;;;1.60;;
37907;SDS011;23740;51.550;6.846;2022-12-07T09:40:47;3.85;;;1.90;;
37907;SDS011;23740;51.550;6.846;2022-12-07T09:43:13;4.07;;;1.65;;
37907;SDS011;23740;51.550;6.846;2022-12-07T09:45:46;3.45;;;1.95;;
37907;SDS011;23740;51.550;6.846;2022-12-07T09:48:15;3.63;;;1.90;;
37907;SDS011;23740;51.550;6.846;2022-12-07T09:50:43;4.03;;;1.73;;
37907;SDS011;23740;51.550;6.846;2022-12-07T09:53:11;5.55;;;1.90;;
37907;SDS011;23740;51.550;6.846;2022-12-07T09:55:40;2.50;;;1.50;;
37907;SDS011;23740;51.550;6.846;2022-12-07T09:58:19;2.13;;;1.73;;
37907;SDS011;23740;51.550;6.846;2022-12-07T10:00:46;2.85;;;1.50;;
37907;SDS011;23740;51.550;6.846;2022-12-07T10:03:11;1.77;;;1.65;;
37907;SDS011;23740;51.550;6.846;2022-12-07T10:05:41;3.22;;;2.10;;
37907;SDS011;23740;51.550;6.846;2022-12-07T10:08:12;3.50;;;1.60;;
37907;SDS011;23740;51.550;6.846;2022-12-07T10:10:38;3.88;;;1.90;;
37907;SDS011;23740;51.550;6.846;2022-12-07T10:13:06;5.45;;;2.17;;
37907;SDS011;23740;51.550;6.846;2022-12-07T10:15:43;2.85;;;2.10;;
37907;SDS011;23740;51.550;6.846;2022-12-07T10:21:25;3.03;;;1.60;;
37907;SDS011;23740;51.550;6.846;2022-12-07T10:24:02;3.40;;;1.90;;
37907;SDS011;23740;51.550;6.846;2022-12-07T10:26:35;3.78;;;2.38;;
37907;SDS011;23740;51.550;6.846;2022-12-07T10:29:24;3.25;;;2.10;;
37907;SDS011;23740;51.550;6.846;2022-12-07T10:34:29;5.00;;;2.10;;
37907;SDS011;23740;51.550;6.846;2022-12-07T10:39:50;2.90;;;2.05;;
37907;SDS011;23740;51.550;6.846;2022-12-07T10:42:30;3.30;;;1.83;;
37907;SDS011;23740;51.550;6.846;2022-12-07T10:55:28;4.28;;;1.70;;
37907;SDS011;23740;51.550;6.846;2022-12-07T11:00:30;4.85;;;1.83;;
37907;SDS011;23740;51.550;6.846;2022-12-07T11:11:14;2.65;;;1.85;;
37907;SDS011;23740;51.550;6.846;2022-12-07T11:17:13;1.77;;;1.42;;
37907;SDS011;23740;51.550;6.846;2022-12-07T11:25:26;1.67;;;1.58;;
37907;SDS011;23740;51.550;6.846;2022-12-07T11:30:48;1.58;;;1.45;;
37907;SDS011;23740;51.550;6.846;2022-12-07T11:33:22;2.00;;;1.45;;
37907;SDS011;23740;51.550;6.846;2022-12-07T11:39:13;2.45;;;1.80;;
37907;SDS011;23740;51.550;6.846;2022-12-07T11:41:33;1.70;;;1.40;;
37907;SDS011;23740;51.550;6.846;2022-12-07T11:52:45;3.70;;;1.80;;
37907;SDS011;23740;51.550;6.846;2022-12-07T11:55:40;2.00;;;1.50;;
37907;SDS011;23740;51.550;6.846;2022-12-07T12:03:44;1.63;;;1.38;;
37907;SDS011;23740;51.550;6.846;2022-12-07T12:08:38;1.73;;;1.08;;
37907;SDS011;23740;51.550;6.846;2022-12-07T12:19:15;3.58;;;1.42;;
37907;SDS011;23740;51.550;6.846;2022-12-07T12:21:46;1.70;;;1.60;;
37907;SDS011;23740;51.550;6.846;2022-12-07T12:24:18;2.53;;;1.52;;
37907;SDS011;23740;51.550;6.846;2022-12-07T12:26:53;2.03;;;1.60;;
37907;SDS011;23740;51.550;6.846;2022-12-07T12:29:30;2.60;;;1.60;;
37907;SDS011;23740;51.550;6.846;2022-12-07T12:32:11;1.95;;;1.35;;
37907;SDS011;23740;51.550;6.846;2022-12-07T12:34:41;1.60;;;1.45;;
37907;SDS011;23740;51.550;6.846;2022-12-07T12:45:23;2.58;;;1.50;;
37907;SDS011;23740;51.550;6.846;2022-12-07T12:54:04;2.38;;;1.70;;
37907;SDS011;23740;51.550;6.846;2022-12-07T12:59:39;1.92;;;1.20;;
37907;SDS011;23740;51.550;6.846;2022-12-07T13:02:09;2.10;;;1.38;;
37907;SDS011;23740;51.550;6.846;2022-12-07T13:13:00;1.98;;;1.63;;
37907;SDS011;23740;51.550;6.846;2022-12-07T13:20:59;2.47;;;1.33;;
37907;SDS011;23740;51.550;6.846;2022-12-07T13:26:06;3.22;;;1.50;;
37907;SDS011;23740;51.550;6.846;2022-12-07T13:28:40;2.67;;;1.70;;
37907;SDS011;23740;51.550;6.846;2022-12-07T13:33:51;1.67;;;1.02;;
37907;SDS011;23740;51.550;6.846;2022-12-07T13:41:41;1.58;;;1.38;;
37907;SDS011;23740;51.550;6.846;2022-12-07T13:44:13;2.85;;;1.83;;
37907;SDS011;23740;51.550;6.846;2022-12-07T13:46:42;2.50;;;1.50;;
37907;SDS011;23740;51.550;6.846;2022-12-07T13:49:27;1.27;;;1.17;;
37907;SDS011;23740;51.550;6.846;2022-12-07T13:51:55;3.80;;;1.70;;
37907;SDS011;23740;51.550;6.846;2022-12-07T13:57:31;2.00;;;1.27;;
37907;SDS011;23740;51.550;6.846;2022-12-07T14:02:32;1.70;;;1.35;;
37907;SDS011;23740;51.550;6.846;2022-12-07T14:05:09;1.83;;;1.35;;
37907;SDS011;23740;51.550;6.846;2022-12-07T14:08:03;1.67;;;1.02;;
37907;SDS011;23740;51.550;6.846;2022-12-07T14:16:28;2.38;;;1.38;;
37907;SDS011;23740;51.550;6.846;2022-12-07T14:19:05;2.22;;;1.33;;
37907;SDS011;23740;51.550;6.846;2022-12-07T14:22:09;3.92;;;1.60;;
37907;SDS011;23740;51.550;6.846;2022-12-07T14:24:43;2.08;;;1.35;;
37907;SDS011;23740;51.550;6.846;2022-12-07T14:27:18;4.65;;;1.70;;
37907;SDS011;23740;51.550;6.846;2022-12-07T14:29:50;3.05;;;1.50;;
37907;SDS011;23740;51.550;6.846;2022-12-07T14:37:38;1.85;;;1.50;;
37907;SDS011;23740;51.550;6.846;2022-12-07T14:40:04;1.73;;;1.50;;
37907;SDS011;23740;51.550;6.846;2022-12-07T14:42:30;1.13;;;1.08;;
37907;SDS011;23740;51.550;6.846;2022-12-07T14:44:56;2.20;;;1.58;;
37907;SDS011;23740;51.550;6.846;2022-12-07T14:47:22;1.63;;;1.10;;
37907;SDS011;23740;51.550;6.846;2022-12-07T14:49:48;1.70;;;1.33;;
37907;SDS011;23740;51.550;6.846;2022-12-07T14:52:15;2.50;;;1.30;;
37907;SDS011;23740;51.550;6.846;2022-12-07T14:54:43;1.88;;;1.30;;
37907;SDS011;23740;51.550;6.846;2022-12-07T14:57:09;2.30;;;1.63;;
37907;SDS011;23740;51.550;6.846;2022-12-07T14:59:35;2.53;;;1.30;;
37907;SDS011;23740;51.550;6.846;2022-12-07T15:02:00;4.22;;;1.50;;
37907;SDS011;23740;51.550;6.846;2022-12-07T15:04:26;2.75;;;1.40;;
37907;SDS011;23740;51.550;6.846;2022-12-07T15:06:58;2.08;;;1.38;;
37907;SDS011;23740;51.550;6.846;2022-12-07T15:09:24;2.33;;;1.42;;
37907;SDS011;23740;51.550;6.846;2022-12-07T15:11:50;2.28;;;0.95;;
37907;SDS011;23740;51.550;6.846;2022-12-07T15:14:15;2.53;;;1.20;;
37907;SDS011;23740;51.550;6.846;2022-12-07T15:16:41;2.22;;;1.30;;
37907;SDS011;23740;51.550;6.846;2022-12-07T15:19:17;1.80;;;1.20;;
37907;SDS011;23740;51.550;6.846;2022-12-07T15:21:47;2.03;;;1.30;;
37907;SDS011;23740;51.550;6.846;2022-12-07T15:24:13;1.52;;;1.40;;
37907;SDS011;23740;51.550;6.846;2022-12-07T15:26:39;2.60;;;1.40;;
37907;SDS011;23740;51.550;6.846;2022-12-07T15:29:05;10.63;;;1.65;;
37907;SDS011;23740;51.550;6.846;2022-12-07T15:31:31;20.10;;;1.48;;
37907;SDS011;23740;51.550;6.846;2022-12-07T15:33:56;1.98;;;1.42;;
37907;SDS011;23740;51.550;6.846;2022-12-07T15:36:23;2.10;;;1.13;;
37907;SDS011;23740;51.550;6.846;2022-12-07T15:38:49;4.65;;;1.80;;
37907;SDS011;23740;51.550;6.846;2022-12-07T15:41:15;3.05;;;1.30;;
37907;SDS011;23740;51.550;6.846;2022-12-07T15:43:40;2.92;;;1.50;;
37907;SDS011;23740;51.550;6.846;2022-12-07T15:46:31;2.42;;;1.40;;
37907;SDS011;23740;51.550;6.846;2022-12-07T15:48:57;1.90;;;1.70;;
37907;SDS011;23740;51.550;6.846;2022-12-07T15:51:23;6.32;;;4.18;;
37907;SDS011;23740;51.550;6.846;2022-12-07T15:53:48;6.60;;;4.13;;
37907;SDS011;23740;51.550;6.846;2022-12-07T15:56:14;4.95;;;3.70;;
37907;SDS011;23740;51.550;6.846;2022-12-07T15:58:39;4.97;;;3.25;;
37907;SDS011;23740;51.550;6.846;2022-12-07T16:01:11;3.95;;;2.63;;
37907;SDS011;23740;51.550;6.846;2022-12-07T16:03:37;3.38;;;3.00;;
37907;SDS011;23740;51.550;6.846;2022-12-07T16:06:03;8.38;;;3.03;;
37907;SDS011;23740;51.550;6.846;2022-12-07T16:08:28;3.28;;;2.45;;
37907;SDS011;23740;51.550;6.846;2022-12-07T16:10:54;5.63;;;2.80;;
37907;SDS011;23740;51.550;6.846;2022-12-07T16:13:19;5.32;;;2.70;;
37907;SDS011;23740;51.550;6.846;2022-12-07T16:15:45;6.80;;;2.90;;
37907;SDS011;23740;51.550;6.846;2022-12-07T16:18:11;5.75;;;2.72;;
37907;SDS011;23740;51.550;6.846;2022-12-07T16:20:36;4.75;;;2.70;;
37907;SDS011;23740;51.550;6.846;2022-12-07T16:23:02;5.40;;;2.67;;
37907;SDS011;23740;51.550;6.846;2022-12-07T16:25:27;12.38;;;2.55;;
37907;SDS011;23740;51.550;6.846;2022-12-07T16:27:53;3.25;;;2.53;;
37907;SDS011;23740;51.550;6.846;2022-12-07T16:30:18;4.65;;;2.65;;
37907;SDS011;23740;51.550;6.846;2022-12-07T16:32:44;5.68;;;2.80;;
37907;SDS011;23740;51.550;6.846;2022-12-07T16:35:10;4.13;;;2.50;;
37907;SDS011;23740;51.550;6.846;2022-12-07T16:37:36;3.35;;;2.42;;
37907;SDS011;23740;51.550;6.846;2022-12-07T16:40:02;3.15;;;2.30;;
37907;SDS011;23740;51.550;6.846;2022-12-07T16:42:31;9.55;;;2.78;;
37907;SDS011;23740;51.550;6.846;2022-12-07T16:44:56;3.28;;;2.42;;
37907;SDS011;23740;51.550;6.846;2022-12-07T16:47:22;5.43;;;2.45;;
37907;SDS011;23740;51.550;6.846;2022-12-07T16:49:47;5.90;;;2.95;;
37907;SDS011;23740;51.550;6.846;2022-12-07T16:52:13;4.03;;;2.38;;
37907;SDS011;23740;51.550;6.846;2022-12-07T16:54:38;3.75;;;2.20;;
37907;SDS011;23740;51.550;6.846;2022-12-07T16:57:03;3.92;;;2.55;;
37907;SDS011;23740;51.550;6.846;2022-12-07T16:59:29;5.05;;;2.40;;
37907;SDS011;23740;51.550;6.846;2022-12-07T17:01:54;4.53;;;2.65;;
37907;SDS011;23740;51.550;6.846;2022-12-07T17:04:19;3.70;;;2.42;;
37907;SDS011;23740;51.550;6.846;2022-12-07T17:06:45;4.43;;;2.20;;
37907;SDS011;23740;51.550;6.846;2022-12-07T17:09:10;3.67;;;2.40;;
37907;SDS011;23740;51.550;6.846;2022-12-07T17:11:37;4.57;;;2.55;;
37907;SDS011;23740;51.550;6.846;2022-12-07T17:14:02;4.85;;;2.40;;
37907;SDS011;23740;51.550;6.846;2022-12-07T17:16:47;4.10;;;2.13;;
37907;SDS011;23740;51.550;6.846;2022-12-07T17:19:13;6.10;;;2.97;;
37907;SDS011;23740;51.550;6.846;2022-12-07T17:21:40;2.58;;;2.20;;
37907;SDS011;23740;51.550;6.846;2022-12-07T17:24:07;4.43;;;2.40;;
37907;SDS011;23740;51.550;6.846;2022-12-07T17:26:34;3.50;;;2.20;;
37907;SDS011;23740;51.550;6.846;2022-12-07T17:29:00;3.78;;;2.40;;
37907;SDS011;23740;51.550;6.846;2022-12-07T17:31:26;3.97;;;2.70;;
37907;SDS011;23740;51.550;6.846;2022-12-07T17:33:51;4.82;;;2.65;;
37907;SDS011;23740;51.550;6.846;2022-12-07T17:36:27;3.42;;;2.22;;
37907;SDS011;23740;51.550;6.846;2022-12-07T17:38:53;4.63;;;2.50;;